Hlavní strana
METAR-TAF:

METAR-TAF

Letiště :

Bodø, Norsko

zeměpisná šířka: 67-16N, zeměpisná délka: 014-22E, výška: 1 m

Aktuální stav počasí

Zpráva byla vytvořena před 38 minutami, v 03:50 UTC
Východní vítr 28 kt
Teplota -3°C
Vlhkost vzduchu 93%
Tlak 978 hPa
Viditelnost: 3000 m
Skoro jasno ve výšce 400 ft
Oblačno až skoro zataženo ve výšce 1800 ft
slabé sněžení, nízko zvířený sníh

METAR: ENBO 020350Z 09028KT 9999 3000E -SN DRSN FEW004 BKN018 M03/M04 Q0978 TEMPO 09028G38KT

Čas: 06:28 (04:28 UTC)

Předpověď počasí

Předpověď platná od 02 v 03 UTC do 02 v 24 UTC
Východní vítr 20 kt
Viditelnost 10 km a více
Skoro jasno ve výšce 3000 ft
Oblačno až skoro zataženo ve výšce 6000 ft
Dočasný
od 02 v 03 UTC do 02 v 06 UTC
Východojihovýchodní vítr 25 kt s nárazy do 35 kt
Viditelnost: 0600 m
ve výšce 500 ft
sníh, nízko zvířený sníh
Dočasný
od 02 v 06 UTC do 02 v 10 UTC
Jihojihovýchodní vítr 12 kt

TAF: ENBO 0203/0224 10020KT 9999 FEW030 BKN060 TEMPO 0203/0206 11025G35KT 0600 SN DRSN VV005 TEMPO 0206/0210 16012KT

Stav a předpovědi počasí z více než 4 000 letišť (zprávy METAR a TAF).

Červené a žluté tečky na mapě představují dostupné meteorologické stanice.

Když kurzor umístíte na tečku, zobrazí se název stanice.

Pak kliknutím zobrazíte stav a předpověď počasí.

Chcete-li změnit mapu, kliknutím na zelené tlačítko se znaménkem +mapu přiblížíte, kliknutím na zelené tlačítko se znaménkem – mapu oddálíte a kliknutím na zelené šipky přejdete na sousední mapy.


METAR-TAF: